createdAt,value
2022-10-17T00:00:34.559Z,5.20
2022-10-17T00:03:02.077Z,5.40
2022-10-17T00:05:28.835Z,5.13
2022-10-17T00:07:55.910Z,5.35
2022-10-17T00:10:22.880Z,5.40
2022-10-17T00:12:51.599Z,5.80
2022-10-17T00:15:20.517Z,5.35
2022-10-17T00:17:47.384Z,5.72
2022-10-17T00:20:14.986Z,5.38
2022-10-17T00:22:42.640Z,5.22
2022-10-17T00:25:09.913Z,5.30
2022-10-17T00:27:37.972Z,5.30
2022-10-17T00:30:06.187Z,5.40
2022-10-17T00:32:33.042Z,5.97
2022-10-17T00:34:59.836Z,5.40
2022-10-17T00:37:26.583Z,4.88
2022-10-17T00:39:54.437Z,5.68
2022-10-17T00:42:22.065Z,5.18
2022-10-17T00:44:48.749Z,5.30
2022-10-17T00:47:19.557Z,5.57
2022-10-17T00:49:47.095Z,5.60
2022-10-17T00:52:17.818Z,5.15
2022-10-17T00:54:51.846Z,5.30
2022-10-17T00:57:18.785Z,5.50
2022-10-17T00:59:50.949Z,4.88
2022-10-17T01:02:20.617Z,5.18
2022-10-17T01:04:50.164Z,5.50
2022-10-17T01:07:17.443Z,5.00
2022-10-17T01:09:45.706Z,5.07
2022-10-17T01:12:18.368Z,4.95
2022-10-17T01:15:03.221Z,5.65
2022-10-17T01:17:35.991Z,5.32
2022-10-17T01:20:42.906Z,5.30
2022-10-17T01:23:30.795Z,5.55
2022-10-17T01:26:16.301Z,4.95
2022-10-17T01:29:00.877Z,5.07
2022-10-17T01:31:52.542Z,4.97
2022-10-17T01:34:33.568Z,5.22
2022-10-17T01:37:14.768Z,4.85
2022-10-17T01:40:26.600Z,4.88
2022-10-17T01:43:03.534Z,5.30
2022-10-17T01:45:40.478Z,5.40
2022-10-17T01:48:17.447Z,5.20
2022-10-17T01:50:54.954Z,4.50
2022-10-17T01:53:31.827Z,4.90
2022-10-17T01:56:02.727Z,4.68
2022-10-17T01:58:42.014Z,5.20
2022-10-17T02:01:11.501Z,4.05
2022-10-17T02:03:40.944Z,4.95
2022-10-17T02:06:07.887Z,4.93
2022-10-17T02:08:42.274Z,5.30
2022-10-17T02:11:16.745Z,4.70
2022-10-17T02:13:52.322Z,5.47
2022-10-17T02:16:43.441Z,4.78
2022-10-17T02:19:15.952Z,4.82
2022-10-17T02:22:05.802Z,5.03
2022-10-17T02:24:38.605Z,4.97
2022-10-17T02:27:28.052Z,4.75
2022-10-17T02:30:35.246Z,4.75
2022-10-17T02:33:26.240Z,4.80
2022-10-17T02:35:56.857Z,4.57
2022-10-17T02:38:26.757Z,4.47
2022-10-17T02:40:54.066Z,4.65
2022-10-17T02:43:21.907Z,4.70
2022-10-17T02:45:50.101Z,4.88
2022-10-17T02:48:37.805Z,4.97
2022-10-17T02:51:34.404Z,4.75
2022-10-17T02:54:08.355Z,4.65
2022-10-17T02:56:41.331Z,5.18
2022-10-17T02:59:12.331Z,5.28
2022-10-17T03:01:39.269Z,5.03
2022-10-17T03:04:12.729Z,4.70
2022-10-17T03:06:41.182Z,4.72
2022-10-17T03:09:08.385Z,4.45
2022-10-17T03:11:35.300Z,4.75
2022-10-17T03:14:02.124Z,4.93
2022-10-17T03:16:29.102Z,4.53
2022-10-17T03:18:56.226Z,5.07
2022-10-17T03:21:22.995Z,4.50
2022-10-17T03:23:49.788Z,4.75
2022-10-17T03:26:16.545Z,4.80
2022-10-17T03:28:43.488Z,4.80
2022-10-17T03:31:12.964Z,4.55
2022-10-17T03:33:39.703Z,4.72
2022-10-17T03:36:15.400Z,4.40
2022-10-17T03:38:43.468Z,4.32
2022-10-17T03:41:10.569Z,4.60
2022-10-17T03:43:37.535Z,4.60
2022-10-17T03:46:07.394Z,4.32
2022-10-17T03:48:34.352Z,4.32
2022-10-17T03:51:05.856Z,4.70
2022-10-17T03:53:33.061Z,4.63
2022-10-17T03:56:14.494Z,4.85
2022-10-17T03:58:41.914Z,4.50
2022-10-17T04:01:11.616Z,4.25
2022-10-17T04:03:38.763Z,4.30
2022-10-17T04:06:06.680Z,4.50
2022-10-17T04:08:34.541Z,4.70
2022-10-17T04:11:02.942Z,4.30
2022-10-17T04:13:30.827Z,5.07
2022-10-17T04:16:02.663Z,4.50
2022-10-17T04:18:29.512Z,4.38
2022-10-17T04:20:56.727Z,4.30
2022-10-17T04:23:23.728Z,4.38
2022-10-17T04:25:50.506Z,4.38
2022-10-17T04:28:17.329Z,4.55
2022-10-17T04:30:45.555Z,4.55
2022-10-17T04:33:12.546Z,4.35
2022-10-17T04:35:39.309Z,4.38
2022-10-17T04:38:06.045Z,4.38
2022-10-17T04:40:32.835Z,4.05
2022-10-17T04:42:59.669Z,4.55
2022-10-17T04:45:26.405Z,4.30
2022-10-17T04:47:53.181Z,4.90
2022-10-17T04:50:19.922Z,4.78
2022-10-17T04:52:46.679Z,4.50
2022-10-17T04:55:13.404Z,4.70
2022-10-17T04:57:40.192Z,4.00
2022-10-17T05:02:41.201Z,4.43
2022-10-17T05:05:08.456Z,4.57
2022-10-17T05:07:35.231Z,4.47
2022-10-17T05:10:02.186Z,4.47
2022-10-17T05:12:29.299Z,4.40
2022-10-17T05:14:56.213Z,4.38
2022-10-17T05:17:22.917Z,4.32
2022-10-17T05:19:49.665Z,4.63
2022-10-17T05:22:16.414Z,4.35
2022-10-17T05:24:43.140Z,4.30
2022-10-17T05:31:04.929Z,4.18
2022-10-17T05:33:31.978Z,4.30
2022-10-17T05:35:59.276Z,4.30
2022-10-17T05:38:26.894Z,4.22
2022-10-17T05:40:58.653Z,4.00
2022-10-17T05:43:25.822Z,4.10
2022-10-17T05:45:52.744Z,4.20
2022-10-17T05:48:20.235Z,4.55
2022-10-17T05:50:47.399Z,4.10
2022-10-17T05:53:14.242Z,4.10
2022-10-17T05:55:41.177Z,4.50
2022-10-17T05:58:07.981Z,4.05
2022-10-17T06:00:34.963Z,4.05
2022-10-17T06:03:01.770Z,4.00
2022-10-17T06:05:28.590Z,4.00
2022-10-17T06:07:58.307Z,3.88
2022-10-17T06:10:27.969Z,3.78
2022-10-17T06:12:54.751Z,4.18
2022-10-17T06:15:21.479Z,4.07
2022-10-17T06:17:48.272Z,4.18
2022-10-17T06:20:15.106Z,3.85
2022-10-17T06:22:41.923Z,4.05
2022-10-17T06:25:09.195Z,4.18
2022-10-17T06:27:35.921Z,4.53
2022-10-17T06:30:02.768Z,3.85
2022-10-17T06:32:29.764Z,3.97
2022-10-17T06:34:56.707Z,3.85
2022-10-17T06:37:23.448Z,4.30
2022-10-17T06:39:50.214Z,4.30
2022-10-17T06:42:17.030Z,3.85
2022-10-17T06:44:43.793Z,3.78
2022-10-17T06:47:11.296Z,3.50
2022-10-17T06:49:38.350Z,3.58
2022-10-17T06:52:05.344Z,3.83
2022-10-17T06:54:32.368Z,3.90
2022-10-17T06:56:59.087Z,4.40
2022-10-17T06:59:25.825Z,3.85
2022-10-17T07:01:52.576Z,4.40
2022-10-17T07:04:19.718Z,3.60
2022-10-17T07:06:46.533Z,4.00
2022-10-17T07:09:14.128Z,3.38
2022-10-17T07:11:40.898Z,3.83
2022-10-17T07:14:07.672Z,3.50
2022-10-17T07:16:34.950Z,3.38
2022-10-17T07:19:01.799Z,3.33
2022-10-17T07:21:28.705Z,3.58
2022-10-17T07:23:55.445Z,3.50
2022-10-17T07:26:22.407Z,3.63
2022-10-17T07:28:53.240Z,3.30
2022-10-17T07:31:21.419Z,3.15
2022-10-17T07:33:48.880Z,3.30
2022-10-17T07:36:15.898Z,3.65
2022-10-17T07:38:42.771Z,3.28
2022-10-17T07:41:11.468Z,3.47
2022-10-17T07:43:38.808Z,3.47
2022-10-17T07:46:06.404Z,3.83
2022-10-17T07:48:33.412Z,3.33
2022-10-17T07:51:05.043Z,3.55
2022-10-17T07:53:31.966Z,4.10
2022-10-17T07:55:59.022Z,3.60
2022-10-17T07:58:26.006Z,3.85
2022-10-17T08:00:53.022Z,4.00
2022-10-17T08:03:19.904Z,3.88
2022-10-17T08:05:46.696Z,4.13
2022-10-17T08:08:13.459Z,4.10
2022-10-17T08:10:40.274Z,3.78
2022-10-17T08:13:07.332Z,4.75
2022-10-17T08:15:34.062Z,4.15
2022-10-17T08:18:00.800Z,4.10
2022-10-17T08:20:27.614Z,3.85
2022-10-17T08:22:55.310Z,3.88
2022-10-17T08:25:22.771Z,4.32
2022-10-17T08:27:49.978Z,3.80
2022-10-17T08:30:17.548Z,4.20
2022-10-17T08:32:44.486Z,4.50
2022-10-17T08:35:11.530Z,4.28
2022-10-17T08:37:38.310Z,4.78
2022-10-17T08:40:05.801Z,5.10
2022-10-17T08:43:19.870Z,4.55
2022-10-17T08:45:53.482Z,4.45
2022-10-17T08:48:24.245Z,4.45
2022-10-17T08:50:59.213Z,4.88
2022-10-17T08:53:35.087Z,4.43
2022-10-17T08:56:19.618Z,4.75
2022-10-17T08:58:51.771Z,4.57
2022-10-17T09:01:42.485Z,4.30
2022-10-17T09:07:17.382Z,3.88
2022-10-17T09:10:02.070Z,3.63
2022-10-17T09:13:05.355Z,4.22
2022-10-17T09:15:51.030Z,3.78
2022-10-17T09:18:42.766Z,4.40
2022-10-17T09:21:14.854Z,3.92
2022-10-17T09:23:59.669Z,3.70
2022-10-17T09:26:36.490Z,4.75
2022-10-17T09:29:10.783Z,4.40
2022-10-17T09:31:52.313Z,4.05
2022-10-17T09:34:20.376Z,4.07
2022-10-17T09:36:48.691Z,4.40
2022-10-17T09:39:19.478Z,4.20
2022-10-17T09:41:55.509Z,4.10
2022-10-17T09:44:25.938Z,4.38
2022-10-17T09:47:13.395Z,4.80
2022-10-17T09:49:45.834Z,4.75
2022-10-17T09:52:27.790Z,5.20
2022-10-17T09:55:06.744Z,5.15
2022-10-17T09:57:58.110Z,4.82
2022-10-17T10:00:31.876Z,5.20
2022-10-17T10:03:26.107Z,5.22
2022-10-17T10:06:06.606Z,5.05
2022-10-17T10:08:49.535Z,5.63
2022-10-17T10:11:17.785Z,5.30
2022-10-17T10:13:47.316Z,4.97
2022-10-17T10:16:21.487Z,5.25
2022-10-17T10:18:50.943Z,6.00
2022-10-17T10:21:23.462Z,5.95
2022-10-17T10:24:08.804Z,5.53
2022-10-17T10:26:42.610Z,5.75
2022-10-17T10:29:31.296Z,5.53
2022-10-17T10:32:23.884Z,5.22
2022-10-17T10:34:56.726Z,6.10
2022-10-17T10:37:37.210Z,5.20
2022-10-17T10:40:20.111Z,5.30
2022-10-17T10:42:49.530Z,5.22
2022-10-17T10:45:50.036Z,6.05
2022-10-17T10:48:20.773Z,5.68
2022-10-17T10:51:14.075Z,5.40
2022-10-17T10:54:01.555Z,4.80
2022-10-17T10:56:38.883Z,4.93
2022-10-17T10:59:08.705Z,5.57
2022-10-17T11:01:56.592Z,5.22
2022-10-17T11:04:41.103Z,5.45
2022-10-17T11:07:35.011Z,5.07
2022-10-17T11:10:20.574Z,5.18
2022-10-17T11:13:10.222Z,4.32
2022-10-17T11:15:49.635Z,4.80
2022-10-17T11:18:35.213Z,5.70
2022-10-17T11:21:16.749Z,4.65
2022-10-17T11:23:48.603Z,4.45
2022-10-17T11:26:26.755Z,4.10
2022-10-17T11:29:06.555Z,4.53
2022-10-17T11:31:39.368Z,4.30
2022-10-17T11:34:20.139Z,4.00
2022-10-17T11:36:50.950Z,4.05
2022-10-17T11:39:28.098Z,3.90
2022-10-17T11:42:07.185Z,4.10
2022-10-17T11:44:39.565Z,4.10
2022-10-17T11:47:14.919Z,4.18
2022-10-17T11:49:51.041Z,4.13
2022-10-17T11:55:26.356Z,4.03
2022-10-17T11:58:31.758Z,4.30
2022-10-17T12:01:22.778Z,4.47
2022-10-17T12:04:14.047Z,4.35
2022-10-17T12:06:52.435Z,4.50
2022-10-17T12:09:22.337Z,4.30
2022-10-17T12:11:58.547Z,4.38
2022-10-17T12:14:41.566Z,4.20
2022-10-17T12:17:32.988Z,4.50
2022-10-17T12:20:24.915Z,4.55
2022-10-17T12:23:03.210Z,5.03
2022-10-17T12:25:33.736Z,4.45
2022-10-17T12:28:06.562Z,4.40
2022-10-17T12:30:34.486Z,4.82
2022-10-17T12:33:11.455Z,4.60
2022-10-17T12:35:39.606Z,4.72
2022-10-17T12:38:18.273Z,4.80
2022-10-17T12:40:49.098Z,4.50
2022-10-17T12:43:15.992Z,5.05
2022-10-17T12:45:53.028Z,4.90
2022-10-17T12:48:34.799Z,4.95
2022-10-17T12:51:34.672Z,4.82
2022-10-17T12:53:59.200Z,5.03
2022-10-17T12:56:44.452Z,5.30
2022-10-17T12:59:24.453Z,4.80
2022-10-17T13:01:57.874Z,5.00
2022-10-17T13:04:25.671Z,5.20
2022-10-17T13:06:55.527Z,5.78
2022-10-17T13:09:42.574Z,5.85
2022-10-17T13:12:14.972Z,4.97
2022-10-17T13:14:43.561Z,5.15
2022-10-17T13:17:26.133Z,4.95
2022-10-17T13:19:53.398Z,6.38
2022-10-17T13:22:26.998Z,5.55
2022-10-17T13:25:08.542Z,5.60
2022-10-17T13:27:37.158Z,5.18
2022-10-17T13:30:24.788Z,5.60
2022-10-17T13:32:53.976Z,5.43
2022-10-17T13:36:00.374Z,5.43
2022-10-17T13:38:32.794Z,5.00
2022-10-17T13:41:16.890Z,5.40
2022-10-17T13:43:49.581Z,5.38
2022-10-17T13:46:37.424Z,5.05
2022-10-17T13:49:25.913Z,5.68
2022-10-17T13:51:55.868Z,4.80
2022-10-17T13:54:53.729Z,5.10
2022-10-17T13:57:26.238Z,4.18
2022-10-17T13:59:58.141Z,5.10
2022-10-17T14:02:30.433Z,5.15
2022-10-17T14:05:19.684Z,5.60
2022-10-17T14:10:41.244Z,5.03
2022-10-17T14:13:17.839Z,4.95
2022-10-17T14:15:46.427Z,4.60
2022-10-17T14:18:25.835Z,4.07
2022-10-17T14:21:36.879Z,4.10
2022-10-17T14:23:43.285Z,4.00
2022-10-17T14:26:46.345Z,3.80
2022-10-17T14:29:28.880Z,3.45
2022-10-17T14:32:15.237Z,4.00
2022-10-17T14:34:42.176Z,3.92
2022-10-17T14:37:18.419Z,3.50
2022-10-17T14:39:50.493Z,3.20
2022-10-17T14:42:22.537Z,3.47
2022-10-17T14:44:51.120Z,3.60
2022-10-17T14:47:42.597Z,3.30
2022-10-17T14:50:21.202Z,3.08
2022-10-17T14:53:21.599Z,4.22
2022-10-17T14:55:57.396Z,3.53
2022-10-17T14:58:34.376Z,3.55
2022-10-17T15:01:02.422Z,3.38
2022-10-17T15:03:29.198Z,3.05
2022-10-17T15:05:56.221Z,3.08
2022-10-17T15:08:24.235Z,3.10
2022-10-17T15:10:51.572Z,3.20
2022-10-17T15:13:40.979Z,3.25
2022-10-17T15:16:22.956Z,3.42
2022-10-17T15:18:50.707Z,3.10
2022-10-17T15:21:33.712Z,3.03
2022-10-17T15:24:06.115Z,3.10
2022-10-17T15:26:34.257Z,2.70
2022-10-17T15:29:02.261Z,3.25
2022-10-17T15:31:31.280Z,2.70
2022-10-17T15:33:58.068Z,3.00
2022-10-17T15:36:29.228Z,2.97
2022-10-17T15:38:59.115Z,3.17
2022-10-17T15:41:27.731Z,3.00
2022-10-17T15:43:54.602Z,2.97
2022-10-17T15:46:33.927Z,3.28
2022-10-17T15:49:17.173Z,3.30
2022-10-17T15:51:44.222Z,3.30
2022-10-17T15:56:43.539Z,3.42
2022-10-17T15:59:18.446Z,3.72
2022-10-17T16:01:46.023Z,3.20
2022-10-17T16:04:15.438Z,3.20
2022-10-17T16:06:43.026Z,3.35
2022-10-17T16:09:10.748Z,3.38
2022-10-17T16:11:40.507Z,3.42
2022-10-17T16:14:15.545Z,3.83
2022-10-17T16:16:42.727Z,3.28
2022-10-17T16:19:09.689Z,3.95
2022-10-17T16:21:39.169Z,3.55
2022-10-17T16:24:06.434Z,3.47
2022-10-17T16:26:33.300Z,3.88
2022-10-17T16:29:02.885Z,3.60
2022-10-17T16:31:35.644Z,3.75
2022-10-17T16:34:03.965Z,3.17
2022-10-17T16:36:30.901Z,3.22
2022-10-17T16:38:58.140Z,3.80
2022-10-17T16:41:25.898Z,3.83
2022-10-17T16:43:54.422Z,4.40
2022-10-17T16:46:22.461Z,3.35
2022-10-17T16:48:49.585Z,3.90
2022-10-17T16:51:18.388Z,3.58
2022-10-17T16:53:46.509Z,3.50
2022-10-17T16:56:24.438Z,3.50
2022-10-17T16:58:51.919Z,3.97
2022-10-17T17:01:21.454Z,3.80
2022-10-17T17:03:48.482Z,4.00
2022-10-17T17:06:19.122Z,4.30
2022-10-17T17:08:46.250Z,4.60
2022-10-17T17:11:14.953Z,4.63
2022-10-17T17:13:42.089Z,4.55
2022-10-17T17:16:11.682Z,4.18
2022-10-17T17:18:38.859Z,4.93
2022-10-17T17:21:07.162Z,4.68
2022-10-17T17:23:40.922Z,4.35
2022-10-17T17:26:16.418Z,4.10
2022-10-17T17:28:43.899Z,3.92
2022-10-17T17:31:22.380Z,3.75
2022-10-17T17:33:50.052Z,3.20
2022-10-17T17:36:22.693Z,3.38
2022-10-17T17:38:51.101Z,3.13
2022-10-17T17:41:19.367Z,3.08
2022-10-17T17:43:47.326Z,3.30
2022-10-17T17:46:16.564Z,3.00
2022-10-17T17:48:47.033Z,2.75
2022-10-17T17:51:15.821Z,3.00
2022-10-17T17:53:42.778Z,2.80
2022-10-17T17:56:18.379Z,2.90
2022-10-17T17:58:46.600Z,2.90
2022-10-17T18:01:18.914Z,3.20
2022-10-17T18:03:46.402Z,2.95
2022-10-17T18:06:13.536Z,2.95
2022-10-17T18:08:40.352Z,2.80
2022-10-17T18:11:07.190Z,2.80
2022-10-17T18:13:33.967Z,3.20
2022-10-17T18:16:01.823Z,2.85
2022-10-17T18:18:30.489Z,3.15
2022-10-17T18:21:00.886Z,2.72
2022-10-17T18:23:27.697Z,3.08
2022-10-17T18:26:01.546Z,3.38
2022-10-17T18:28:28.637Z,4.90
2022-10-17T18:30:58.038Z,3.13
2022-10-17T18:33:25.101Z,3.17
2022-10-17T18:35:51.860Z,3.30
2022-10-17T18:38:18.589Z,3.20
2022-10-17T18:40:47.351Z,2.78
2022-10-17T18:43:16.781Z,3.10
2022-10-17T18:45:43.653Z,2.90
2022-10-17T18:48:10.471Z,2.80
2022-10-17T18:50:39.324Z,2.95
2022-10-17T18:53:06.060Z,3.03
2022-10-17T18:55:32.797Z,2.88
2022-10-17T18:58:00.708Z,3.30
2022-10-17T19:00:27.460Z,3.20
2022-10-17T19:02:54.290Z,3.35
2022-10-17T19:05:21.169Z,3.38
2022-10-17T19:07:47.976Z,3.67
2022-10-17T19:10:14.817Z,3.40
2022-10-17T19:12:41.605Z,3.70
2022-10-17T19:15:08.626Z,3.33
2022-10-17T19:17:35.380Z,3.30
2022-10-17T19:20:02.162Z,3.50
2022-10-17T19:22:30.371Z,3.20
2022-10-17T19:24:57.174Z,3.30
2022-10-17T19:27:23.960Z,3.25
2022-10-17T19:29:50.693Z,3.35
2022-10-17T19:32:20.635Z,3.28
2022-10-17T19:34:49.760Z,3.50
2022-10-17T19:37:16.548Z,3.17
2022-10-17T19:39:43.397Z,3.85
2022-10-17T19:42:10.402Z,3.17
2022-10-17T19:44:37.428Z,3.25
2022-10-17T19:47:04.246Z,3.40
2022-10-17T19:49:31.072Z,4.25
2022-10-17T19:51:57.854Z,3.80
2022-10-17T19:54:24.796Z,6.10
2022-10-17T19:56:51.545Z,5.00
2022-10-17T19:59:18.932Z,4.38
2022-10-17T20:01:46.193Z,4.35
2022-10-17T20:04:13.496Z,4.05
2022-10-17T20:06:41.078Z,6.38
2022-10-17T20:09:11.177Z,6.82
2022-10-17T20:11:41.086Z,9.55
2022-10-17T20:14:08.489Z,8.95
2022-10-17T20:16:37.085Z,7.75
2022-10-17T20:19:10.857Z,6.57
2022-10-17T20:21:39.793Z,5.45
2022-10-17T20:24:09.524Z,5.13
2022-10-17T20:26:38.580Z,4.25
2022-10-17T20:29:11.840Z,4.65
2022-10-17T20:31:40.236Z,4.70
2022-10-17T20:34:07.168Z,4.32
2022-10-17T20:36:36.983Z,4.13
2022-10-17T20:39:05.306Z,3.92
2022-10-17T20:41:32.233Z,3.80
2022-10-17T20:43:59.183Z,3.78
2022-10-17T20:49:18.659Z,3.88
2022-10-17T20:51:46.094Z,4.00
2022-10-17T20:54:13.110Z,4.30
2022-10-17T20:56:40.223Z,4.00
2022-10-17T20:59:12.323Z,4.22
2022-10-17T21:01:39.141Z,4.10
2022-10-17T21:04:33.185Z,4.03
2022-10-17T21:06:53.526Z,3.67
2022-10-17T21:09:21.139Z,4.20
2022-10-17T21:11:51.311Z,4.82
2022-10-17T21:14:18.735Z,4.90
2022-10-17T21:16:45.586Z,5.00
2022-10-17T21:19:13.256Z,5.22
2022-10-17T21:21:41.949Z,6.25
2022-10-17T21:24:14.180Z,5.30
2022-10-17T21:26:42.465Z,4.80
2022-10-17T21:29:10.230Z,4.68
2022-10-17T21:31:38.593Z,5.10
2022-10-17T21:34:11.220Z,4.18
2022-10-17T21:36:38.400Z,5.15
2022-10-17T21:39:05.816Z,4.45
2022-10-17T21:41:33.370Z,5.93
2022-10-17T21:44:05.835Z,4.97
2022-10-17T21:46:33.490Z,6.20
2022-10-17T21:49:01.093Z,5.63
2022-10-17T21:51:28.489Z,5.18
2022-10-17T21:53:57.415Z,4.88
2022-10-17T21:56:28.759Z,4.95
2022-10-17T21:58:56.445Z,4.90
2022-10-17T22:01:28.953Z,4.80
2022-10-17T22:03:57.988Z,5.07
2022-10-17T22:06:42.534Z,5.28
2022-10-17T22:09:17.781Z,4.70
2022-10-17T22:11:46.753Z,4.70
2022-10-17T22:14:16.079Z,4.63
2022-10-17T22:16:45.296Z,4.80
2022-10-17T22:19:13.994Z,4.97
2022-10-17T22:21:40.832Z,4.50
2022-10-17T22:24:10.697Z,4.70
2022-10-17T22:26:38.504Z,4.70
2022-10-17T22:29:07.133Z,4.63
2022-10-17T22:31:34.740Z,5.20
2022-10-17T22:34:01.490Z,4.80
2022-10-17T22:36:28.219Z,5.38
2022-10-17T22:38:55.047Z,4.85
2022-10-17T22:41:22.776Z,4.97
2022-10-17T22:43:49.527Z,5.15
2022-10-17T22:46:17.025Z,5.97
2022-10-17T22:48:43.981Z,6.10
2022-10-17T22:51:11.275Z,6.05
2022-10-17T22:53:38.410Z,5.72
2022-10-17T22:56:11.159Z,5.60
2022-10-17T22:58:38.478Z,6.05
2022-10-17T23:01:06.448Z,6.25
2022-10-17T23:03:34.669Z,7.07
2022-10-17T23:06:01.859Z,6.32
2022-10-17T23:08:28.854Z,6.38
2022-10-17T23:10:55.829Z,6.90
2022-10-17T23:13:22.781Z,6.72
2022-10-17T23:15:54.431Z,6.47
2022-10-17T23:18:22.362Z,6.72
2022-10-17T23:20:49.772Z,7.05
2022-10-17T23:23:17.151Z,6.30
2022-10-17T23:25:44.387Z,6.93
2022-10-17T23:28:11.648Z,6.88
2022-10-17T23:30:39.267Z,6.43
2022-10-17T23:33:06.917Z,6.88
2022-10-17T23:35:35.522Z,6.95
2022-10-17T23:38:02.713Z,6.97
2022-10-17T23:40:29.919Z,6.65
2022-10-17T23:42:56.762Z,7.20
2022-10-17T23:45:23.622Z,6.35
2022-10-17T23:47:50.512Z,6.93
2022-10-17T23:50:17.436Z,6.55
2022-10-17T23:52:44.194Z,7.35
2022-10-17T23:55:11.193Z,6.95
2022-10-17T23:57:38.066Z,7.30
